createdAt,value
2019-03-17T00:00:04.992Z,12.00
2019-03-17T00:02:32.680Z,13.57
2019-03-17T00:05:00.472Z,12.77
2019-03-17T00:07:28.224Z,10.30
2019-03-17T00:09:56.002Z,14.30
2019-03-17T00:12:23.961Z,14.97
2019-03-17T00:15:04.315Z,13.07
2019-03-17T00:17:21.029Z,11.27
2019-03-17T00:19:48.689Z,11.33
2019-03-17T00:22:16.459Z,10.83
2019-03-17T00:24:44.331Z,10.70
2019-03-17T00:27:12.308Z,12.60
2019-03-17T00:29:40.181Z,11.57
2019-03-17T00:32:07.898Z,11.93
2019-03-17T00:34:44.103Z,10.67
2019-03-17T00:37:05.088Z,13.00
2019-03-17T00:39:32.970Z,12.60
2019-03-17T00:42:00.635Z,12.90
2019-03-17T00:44:28.373Z,12.93
2019-03-17T00:46:56.117Z,16.83
2019-03-17T00:49:23.811Z,13.43
2019-03-17T00:51:51.595Z,13.20
2019-03-17T00:54:19.669Z,13.00
2019-03-17T00:56:47.317Z,13.40
2019-03-17T00:59:15.096Z,12.63
2019-03-17T01:01:42.953Z,13.17
2019-03-17T01:04:10.733Z,13.77
2019-03-17T01:06:38.697Z,13.77
2019-03-17T01:09:06.468Z,13.40
2019-03-17T01:11:34.237Z,12.93
2019-03-17T01:14:02.009Z,11.83
2019-03-17T01:16:29.761Z,12.30
2019-03-17T01:18:57.521Z,14.03
2019-03-17T01:21:25.410Z,13.77
2019-03-17T01:23:53.173Z,12.43
2019-03-17T01:26:20.915Z,11.87
2019-03-17T01:28:48.697Z,12.97
2019-03-17T01:31:16.473Z,13.43
2019-03-17T01:33:44.336Z,12.17
2019-03-17T01:36:12.093Z,13.03
2019-03-17T01:38:39.847Z,13.43
2019-03-17T01:41:07.633Z,13.10
2019-03-17T01:43:35.504Z,13.93
2019-03-17T01:46:03.160Z,14.97
2019-03-17T01:48:30.914Z,13.80
2019-03-17T01:50:58.693Z,13.77
2019-03-17T01:53:26.460Z,13.17
2019-03-17T01:55:54.328Z,12.87
2019-03-17T01:58:21.975Z,14.23
2019-03-17T02:00:49.864Z,12.73
2019-03-17T02:03:17.620Z,12.83
2019-03-17T02:05:45.502Z,12.77
2019-03-17T02:08:13.475Z,11.53
2019-03-17T02:10:41.239Z,12.97
2019-03-17T02:13:09.006Z,12.90
2019-03-17T02:15:36.748Z,12.43
2019-03-17T02:18:05.457Z,11.78
2019-03-17T02:20:33.520Z,11.27
2019-03-17T02:23:01.275Z,12.40
2019-03-17T02:25:29.049Z,13.23
2019-03-17T02:27:56.830Z,12.67
2019-03-17T02:30:24.689Z,12.40
2019-03-17T02:32:52.349Z,11.83
2019-03-17T02:35:20.046Z,12.00
2019-03-17T02:37:47.784Z,12.80
2019-03-17T02:40:15.554Z,12.00
2019-03-17T02:42:43.247Z,11.60
2019-03-17T02:45:11.083Z,12.43
2019-03-17T02:47:38.771Z,11.73
2019-03-17T02:50:07.648Z,10.73
2019-03-17T02:52:35.411Z,11.50
2019-03-17T02:55:03.481Z,11.37
2019-03-17T02:57:31.250Z,11.27
2019-03-17T02:59:58.889Z,10.63
2019-03-17T03:02:26.671Z,11.53
2019-03-17T03:04:54.332Z,11.07
2019-03-17T03:07:22.004Z,10.57
2019-03-17T03:09:50.073Z,10.90
2019-03-17T03:12:17.716Z,11.50
2019-03-17T03:14:45.498Z,10.20
2019-03-17T03:17:13.351Z,10.90
2019-03-17T03:19:41.260Z,10.13
2019-03-17T03:22:09.105Z,9.60
2019-03-17T03:24:36.878Z,10.50
2019-03-17T03:27:04.623Z,10.23
2019-03-17T03:29:32.304Z,10.80
2019-03-17T03:32:00.201Z,10.70
2019-03-17T03:34:27.841Z,9.80
2019-03-17T03:36:55.606Z,10.30
2019-03-17T03:39:23.386Z,11.00
2019-03-17T03:41:51.130Z,10.40
2019-03-17T03:44:19.030Z,11.07
2019-03-17T03:46:46.985Z,10.83
2019-03-17T03:49:14.835Z,10.43
2019-03-17T03:51:42.815Z,10.17
2019-03-17T03:54:10.682Z,10.50
2019-03-17T03:56:38.340Z,10.90
2019-03-17T03:59:06.117Z,10.17
2019-03-17T04:01:33.875Z,10.87
2019-03-17T04:04:01.877Z,11.33
2019-03-17T04:06:29.713Z,10.90
2019-03-17T04:08:57.344Z,10.87
2019-03-17T04:11:25.139Z,10.93
2019-03-17T04:13:53.109Z,10.73
2019-03-17T04:16:20.758Z,11.13
2019-03-17T04:18:48.429Z,10.47
2019-03-17T04:21:16.407Z,10.57
2019-03-17T04:23:44.071Z,10.83
2019-03-17T04:26:11.841Z,10.93
2019-03-17T04:28:39.543Z,10.80
2019-03-17T04:31:07.251Z,9.80
2019-03-17T04:33:35.032Z,11.17
2019-03-17T04:36:02.797Z,11.90
2019-03-17T04:38:30.448Z,10.60
2019-03-17T04:40:58.778Z,9.97
2019-03-17T04:43:27.625Z,10.17
2019-03-17T04:45:55.503Z,9.63
2019-03-17T04:48:23.351Z,10.53
2019-03-17T04:50:51.243Z,10.40
2019-03-17T04:53:18.888Z,10.63
2019-03-17T04:55:46.767Z,9.93
2019-03-17T04:58:14.646Z,10.27
2019-03-17T05:00:42.397Z,9.50
2019-03-17T05:03:10.180Z,9.17
2019-03-17T05:05:38.044Z,9.47
2019-03-17T05:08:05.728Z,9.93
2019-03-17T05:10:33.577Z,10.13
2019-03-17T05:13:01.328Z,9.80
2019-03-17T05:15:29.098Z,10.77
2019-03-17T05:17:56.974Z,11.17
2019-03-17T05:20:25.046Z,10.20
2019-03-17T05:22:52.916Z,10.23
2019-03-17T05:25:20.556Z,10.00
2019-03-17T05:27:48.346Z,10.47
2019-03-17T05:30:16.212Z,9.97
2019-03-17T05:32:44.052Z,10.97
2019-03-17T05:35:11.948Z,10.50
2019-03-17T05:37:39.817Z,10.80
2019-03-17T05:40:10.867Z,10.87
2019-03-17T05:42:40.637Z,11.70
2019-03-17T05:45:08.429Z,11.70
2019-03-17T05:47:36.207Z,12.10
2019-03-17T05:50:05.199Z,11.90
2019-03-17T05:52:32.844Z,12.73
2019-03-17T05:55:00.516Z,12.53
2019-03-17T05:57:28.390Z,13.33
2019-03-17T05:59:56.163Z,11.90
2019-03-17T06:02:23.780Z,12.57
2019-03-17T06:04:51.423Z,11.60
2019-03-17T06:07:19.261Z,12.90
2019-03-17T06:09:47.132Z,11.70
2019-03-17T06:12:14.876Z,12.50
2019-03-17T06:14:42.684Z,11.23
2019-03-17T06:17:10.416Z,11.60
2019-03-17T06:19:38.068Z,12.73
2019-03-17T06:22:05.741Z,13.07
2019-03-17T06:24:33.467Z,11.23
2019-03-17T06:27:01.164Z,12.33
2019-03-17T06:29:28.808Z,10.17
2019-03-17T06:31:56.604Z,12.17
2019-03-17T06:34:24.561Z,11.43
2019-03-17T06:36:52.331Z,11.77
2019-03-17T06:39:20.103Z,12.97
2019-03-17T06:41:47.865Z,9.83
2019-03-17T06:44:15.646Z,11.60
2019-03-17T06:46:43.401Z,13.53
2019-03-17T06:49:11.274Z,10.93
2019-03-17T06:51:39.029Z,11.67
2019-03-17T06:54:06.812Z,12.00
2019-03-17T06:56:34.572Z,12.73
2019-03-17T06:59:02.541Z,12.07
2019-03-17T07:01:30.430Z,12.07
2019-03-17T07:03:58.282Z,10.83
2019-03-17T07:06:26.040Z,11.63
2019-03-17T07:08:53.794Z,12.03
2019-03-17T07:11:21.679Z,13.33
2019-03-17T07:13:49.444Z,11.90
2019-03-17T07:16:17.318Z,11.23
2019-03-17T07:18:45.086Z,11.33
2019-03-17T07:21:12.854Z,12.83
2019-03-17T07:23:40.604Z,10.30
2019-03-17T07:26:08.424Z,11.93
2019-03-17T07:28:36.034Z,11.40
2019-03-17T07:31:03.916Z,12.43
2019-03-17T07:33:31.678Z,11.43
2019-03-17T07:35:59.543Z,9.67
2019-03-17T07:38:27.826Z,9.73
2019-03-17T07:40:56.092Z,10.77
2019-03-17T07:43:23.843Z,11.27
2019-03-17T07:45:51.642Z,10.97
2019-03-17T07:48:19.604Z,10.50
2019-03-17T07:50:47.367Z,11.50
2019-03-17T07:53:15.123Z,10.97
2019-03-17T07:55:42.898Z,10.43
2019-03-17T07:58:10.767Z,10.70
2019-03-17T08:00:38.392Z,8.80
2019-03-17T08:03:06.185Z,8.23
2019-03-17T08:05:33.961Z,10.03
2019-03-17T08:08:09.525Z,9.63
2019-03-17T08:10:31.033Z,9.20
2019-03-17T08:12:58.898Z,8.27
2019-03-17T08:15:26.870Z,8.03
2019-03-17T08:17:54.547Z,8.40
2019-03-17T08:20:22.267Z,7.77
2019-03-17T08:22:49.939Z,6.93
2019-03-17T08:25:17.727Z,7.30
2019-03-17T08:27:45.492Z,7.60
2019-03-17T08:30:14.389Z,4.23
2019-03-17T08:32:42.140Z,6.63
2019-03-17T08:35:10.315Z,6.77
2019-03-17T08:37:38.096Z,4.53
2019-03-17T08:40:07.299Z,6.03
2019-03-17T08:42:35.062Z,5.10
2019-03-17T08:45:02.799Z,5.17
2019-03-17T08:47:30.482Z,3.27
2019-03-17T08:49:58.360Z,5.20
2019-03-17T08:52:26.417Z,3.63
2019-03-17T08:54:54.296Z,4.97
2019-03-17T08:57:22.165Z,5.30
2019-03-17T08:59:49.931Z,5.43
2019-03-17T09:02:17.689Z,4.50
2019-03-17T09:04:45.456Z,3.50
2019-03-17T09:07:13.332Z,3.20
2019-03-17T09:09:40.979Z,4.83
2019-03-17T09:12:08.752Z,4.37
2019-03-17T09:14:36.405Z,4.40
2019-03-17T09:17:13.705Z,4.37
2019-03-17T09:19:33.589Z,3.70
2019-03-17T09:22:01.366Z,3.73
2019-03-17T09:24:29.208Z,3.77
2019-03-17T09:26:56.861Z,3.23
2019-03-17T09:29:24.669Z,3.00
2019-03-17T09:31:52.361Z,2.73
2019-03-17T09:34:20.080Z,2.83
2019-03-17T09:36:47.953Z,2.03
2019-03-17T09:39:15.826Z,2.77
2019-03-17T09:41:43.468Z,2.73
2019-03-17T09:44:11.165Z,2.00
2019-03-17T09:46:38.820Z,16.77
2019-03-17T09:49:06.573Z,2.23
2019-03-17T09:51:34.332Z,2.67
2019-03-17T09:54:02.005Z,30.83
2019-03-17T09:56:29.868Z,4.23
2019-03-17T09:58:57.742Z,3.20
2019-03-17T10:01:25.500Z,3.73
2019-03-17T10:03:53.276Z,2.93
2019-03-17T10:06:20.981Z,3.13
2019-03-17T10:08:59.408Z,2.50
2019-03-17T10:11:17.988Z,2.77
2019-03-17T10:13:45.872Z,4.33
2019-03-17T10:16:13.641Z,3.23
2019-03-17T10:18:41.401Z,1.73
2019-03-17T10:21:09.164Z,2.93
2019-03-17T10:23:36.943Z,2.70
2019-03-17T10:26:07.060Z,1.45
2019-03-17T10:28:35.267Z,1.93
2019-03-17T10:31:03.419Z,1.20
2019-03-17T10:33:31.178Z,2.47
2019-03-17T10:35:59.136Z,2.50
2019-03-17T10:38:27.011Z,2.03
2019-03-17T10:40:54.772Z,2.60
2019-03-17T10:43:22.648Z,2.03
2019-03-17T10:45:50.538Z,2.33
2019-03-17T10:48:18.394Z,2.27
2019-03-17T10:50:49.751Z,2.40
2019-03-17T10:53:15.665Z,1.80
2019-03-17T10:55:43.403Z,1.77
2019-03-17T10:58:11.170Z,1.57
2019-03-17T11:00:38.836Z,2.37
2019-03-17T11:03:06.608Z,1.13
2019-03-17T11:05:34.483Z,2.13
2019-03-17T11:08:02.131Z,1.37
2019-03-17T11:10:29.948Z,0.97
2019-03-17T11:12:57.685Z,1.30
2019-03-17T11:15:25.351Z,1.20
2019-03-17T11:17:53.219Z,1.00
2019-03-17T11:20:20.960Z,1.40
2019-03-17T11:22:48.849Z,0.83
2019-03-17T11:25:17.110Z,1.53
2019-03-17T11:27:44.881Z,1.10
2019-03-17T11:30:16.024Z,1.17
2019-03-17T11:32:43.793Z,1.37
2019-03-17T11:35:11.447Z,0.93
2019-03-17T11:37:39.125Z,1.57
2019-03-17T11:40:11.301Z,0.73
2019-03-17T11:42:39.351Z,1.30
2019-03-17T11:45:16.866Z,0.90
2019-03-17T11:47:44.942Z,1.77
2019-03-17T11:50:13.467Z,1.03
2019-03-17T11:52:41.484Z,0.97
2019-03-17T11:55:09.897Z,1.87
2019-03-17T11:57:37.670Z,1.77
2019-03-17T12:00:09.995Z,1.33
2019-03-17T12:02:37.872Z,1.57
2019-03-17T12:05:05.989Z,0.60
2019-03-17T12:07:33.809Z,1.47
2019-03-17T12:10:01.691Z,1.00
2019-03-17T12:12:29.464Z,1.90
2019-03-17T12:14:57.426Z,2.30
2019-03-17T12:17:25.396Z,1.40
2019-03-17T12:19:53.163Z,1.50
2019-03-17T12:22:21.132Z,1.63
2019-03-17T12:24:48.892Z,1.90
2019-03-17T12:27:16.677Z,2.00
2019-03-17T12:29:44.300Z,1.30
2019-03-17T12:32:11.987Z,1.70
2019-03-17T12:34:39.740Z,1.30
2019-03-17T12:37:07.380Z,1.60
2019-03-17T12:39:35.185Z,0.90
2019-03-17T12:42:02.963Z,1.83
2019-03-17T12:44:30.713Z,1.60
2019-03-17T12:46:58.489Z,2.03
2019-03-17T12:49:26.256Z,2.33
2019-03-17T12:51:54.000Z,2.50
2019-03-17T12:54:21.705Z,1.83
2019-03-17T12:56:49.360Z,1.70
2019-03-17T12:59:17.105Z,1.63
2019-03-17T13:01:44.875Z,1.90
2019-03-17T13:04:12.524Z,2.03
2019-03-17T13:06:40.413Z,2.10
2019-03-17T13:09:08.267Z,1.97
2019-03-17T13:11:36.049Z,2.10
2019-03-17T13:14:06.687Z,1.97
2019-03-17T13:16:33.318Z,1.60
2019-03-17T13:19:00.976Z,1.40
2019-03-17T13:21:28.926Z,0.80
2019-03-17T13:23:56.634Z,1.23
2019-03-17T13:26:24.491Z,1.33
2019-03-17T13:28:52.241Z,2.03
2019-03-17T13:31:20.654Z,1.57
2019-03-17T13:33:48.595Z,2.20
2019-03-17T13:36:16.571Z,1.50
2019-03-17T13:38:44.436Z,1.40
2019-03-17T13:41:12.201Z,1.53
2019-03-17T13:43:40.069Z,1.20
2019-03-17T13:46:07.829Z,1.47
2019-03-17T13:48:35.497Z,1.00
2019-03-17T13:51:03.374Z,1.37
2019-03-17T13:53:31.057Z,1.20
2019-03-17T13:55:59.217Z,1.10
2019-03-17T13:58:26.892Z,2.13
2019-03-17T14:00:54.845Z,1.90
2019-03-17T14:03:22.608Z,1.90
2019-03-17T14:05:50.252Z,2.40
2019-03-17T14:08:18.035Z,2.40
2019-03-17T14:10:45.825Z,1.83
2019-03-17T14:13:13.483Z,0.83
2019-03-17T14:15:41.143Z,1.50
2019-03-17T14:18:08.875Z,1.80
2019-03-17T14:20:36.644Z,0.80
2019-03-17T14:23:04.426Z,1.90
2019-03-17T14:25:35.516Z,1.60
2019-03-17T14:28:03.342Z,1.80
2019-03-17T14:30:31.370Z,2.17
2019-03-17T14:32:59.287Z,2.20
2019-03-17T14:35:26.928Z,1.33
2019-03-17T14:37:54.713Z,1.47
2019-03-17T14:40:22.573Z,1.80
2019-03-17T14:42:50.643Z,2.17
2019-03-17T14:45:18.408Z,4.80
2019-03-17T14:47:46.384Z,8.90
2019-03-17T14:50:15.795Z,61.87
2019-03-17T14:52:43.664Z,54.90
2019-03-17T14:55:11.428Z,117.57
2019-03-17T14:57:39.291Z,12.23
2019-03-17T15:00:11.256Z,6.03
2019-03-17T15:02:39.029Z,32.60
2019-03-17T15:05:08.008Z,4.10
2019-03-17T15:07:35.891Z,7.43
2019-03-17T15:10:04.351Z,12.97
2019-03-17T15:12:32.135Z,5.70
2019-03-17T15:14:59.955Z,37.77
2019-03-17T15:17:27.676Z,19.10
2019-03-17T15:19:55.461Z,11.90
2019-03-17T15:22:23.185Z,5.13
2019-03-17T15:24:50.924Z,53.77
2019-03-17T15:27:19.360Z,42.57
2019-03-17T15:29:47.218Z,6.23
2019-03-17T15:32:14.859Z,31.07
2019-03-17T15:34:42.642Z,13.23
2019-03-17T15:37:10.293Z,19.77
2019-03-17T15:39:38.068Z,10.33
2019-03-17T15:42:05.845Z,10.33
2019-03-17T15:44:33.733Z,8.53
2019-03-17T15:47:01.584Z,13.13
2019-03-17T15:49:29.554Z,8.57
2019-03-17T15:51:57.294Z,7.00
2019-03-17T15:54:24.997Z,10.13
2019-03-17T15:56:53.148Z,7.67
2019-03-17T15:59:20.930Z,6.47
2019-03-17T16:01:48.681Z,4.07
2019-03-17T16:04:19.538Z,10.17
2019-03-17T16:06:46.058Z,21.77
2019-03-17T16:09:13.717Z,9.73
2019-03-17T16:11:41.689Z,5.97
2019-03-17T16:14:09.665Z,18.23
2019-03-17T16:16:37.420Z,5.70
2019-03-17T16:19:05.144Z,14.03
2019-03-17T16:21:32.840Z,13.23
2019-03-17T16:24:00.620Z,6.63
2019-03-17T16:26:28.376Z,5.37
2019-03-17T16:28:56.149Z,7.63
2019-03-17T16:31:23.800Z,4.60
2019-03-17T16:33:51.689Z,9.20
2019-03-17T16:36:19.458Z,4.40
2019-03-17T16:38:47.329Z,10.30
2019-03-17T16:41:14.985Z,8.00
2019-03-17T16:43:42.754Z,7.63
2019-03-17T16:46:10.485Z,7.93
2019-03-17T16:48:38.280Z,6.33
2019-03-17T16:51:06.044Z,10.63
2019-03-17T16:53:33.821Z,4.60
2019-03-17T16:56:01.586Z,13.93
2019-03-17T16:58:29.451Z,31.23
2019-03-17T17:00:57.197Z,10.10
2019-03-17T17:03:24.977Z,62.90
2019-03-17T17:05:52.758Z,11.17
2019-03-17T17:08:20.495Z,12.70
2019-03-17T17:10:50.218Z,15.93
2019-03-17T17:13:18.179Z,14.73
2019-03-17T17:15:46.280Z,25.83
2019-03-17T17:18:14.249Z,16.83
2019-03-17T17:20:42.020Z,73.17
2019-03-17T17:23:17.562Z,8.77
2019-03-17T17:25:45.726Z,6.03
2019-03-17T17:28:13.363Z,7.20
2019-03-17T17:30:41.320Z,3.90
2019-03-17T17:33:09.136Z,4.67
2019-03-17T17:35:37.006Z,3.57
2019-03-17T17:38:05.477Z,6.50
2019-03-17T17:40:33.570Z,3.63
2019-03-17T17:43:01.475Z,3.43
2019-03-17T17:45:29.394Z,3.57
2019-03-17T17:47:57.287Z,3.63
2019-03-17T17:50:29.038Z,12.03
2019-03-17T17:52:56.886Z,12.97
2019-03-17T17:55:24.912Z,14.23
2019-03-17T17:57:53.338Z,17.87
2019-03-17T18:00:23.325Z,16.80
2019-03-17T18:02:54.127Z,25.57
2019-03-17T18:05:22.069Z,23.53
2019-03-17T18:07:49.934Z,16.87
2019-03-17T18:10:18.313Z,16.07
2019-03-17T18:12:46.181Z,12.00
2019-03-17T18:15:15.334Z,7.30
2019-03-17T18:17:43.060Z,15.67
2019-03-17T18:20:11.918Z,8.60
2019-03-17T18:22:39.653Z,6.20
2019-03-17T18:25:09.120Z,8.80
2019-03-17T18:27:36.818Z,12.23
2019-03-17T18:30:13.004Z,26.68
2019-03-17T18:32:41.725Z,21.97
2019-03-17T18:35:10.106Z,13.33
2019-03-17T18:37:37.955Z,8.67
2019-03-17T18:40:07.175Z,11.00
2019-03-17T18:42:34.834Z,12.57
2019-03-17T18:45:02.899Z,8.63
2019-03-17T18:47:30.698Z,10.53
2019-03-17T18:49:58.967Z,17.43
2019-03-17T18:52:27.754Z,10.90
2019-03-17T18:54:55.818Z,10.13
2019-03-17T18:57:23.635Z,7.90
2019-03-17T18:59:51.758Z,22.50
2019-03-17T19:02:19.404Z,35.17
2019-03-17T19:04:49.235Z,17.63
2019-03-17T19:07:16.880Z,42.37
2019-03-17T19:09:44.660Z,65.13
2019-03-17T19:12:12.356Z,57.80
2019-03-17T19:14:40.071Z,22.50
2019-03-17T19:17:07.956Z,47.37
2019-03-17T19:19:35.727Z,60.23
2019-03-17T19:22:03.501Z,52.83
2019-03-17T19:24:31.249Z,50.87
2019-03-17T19:26:58.972Z,32.40
2019-03-17T19:29:26.677Z,40.70
2019-03-17T19:31:54.453Z,42.67
2019-03-17T19:34:22.225Z,27.93
2019-03-17T19:36:49.904Z,23.03
2019-03-17T19:39:17.653Z,19.17
2019-03-17T19:41:45.418Z,19.50
2019-03-17T19:44:13.048Z,15.33
2019-03-17T19:46:40.943Z,12.03
2019-03-17T19:49:08.815Z,10.93
2019-03-17T19:51:36.468Z,8.97
2019-03-17T19:54:04.347Z,7.40
2019-03-17T19:56:32.210Z,8.20
2019-03-17T19:59:00.084Z,8.13
2019-03-17T20:01:27.952Z,7.73
2019-03-17T20:03:55.821Z,10.53
2019-03-17T20:06:23.576Z,8.70
2019-03-17T20:08:51.345Z,12.83
2019-03-17T20:11:19.215Z,8.70
2019-03-17T20:13:46.998Z,9.03
2019-03-17T20:16:14.741Z,8.73
2019-03-17T20:18:42.513Z,9.93
2019-03-17T20:21:10.483Z,9.97
2019-03-17T20:23:38.366Z,15.07
2019-03-17T20:26:06.033Z,10.03
2019-03-17T20:28:33.847Z,10.03
2019-03-17T20:31:01.489Z,9.77
2019-03-17T20:33:29.420Z,9.80
2019-03-17T20:35:57.168Z,14.00
2019-03-17T20:38:25.157Z,12.87
2019-03-17T20:40:52.795Z,16.57
2019-03-17T20:43:34.075Z,14.83
2019-03-17T20:45:49.884Z,14.70
2019-03-17T20:48:17.668Z,14.07
2019-03-17T20:50:45.442Z,9.50
2019-03-17T20:53:13.271Z,6.17
2019-03-17T20:55:41.048Z,5.07
2019-03-17T20:58:08.824Z,4.57
2019-03-17T21:00:36.586Z,4.50
2019-03-17T21:03:04.348Z,4.20
2019-03-17T21:05:32.104Z,4.03
2019-03-17T21:07:59.912Z,2.60
2019-03-17T21:10:27.636Z,2.13
2019-03-17T21:12:55.421Z,1.80
2019-03-17T21:15:23.188Z,1.60
2019-03-17T21:17:51.007Z,1.50
2019-03-17T21:20:19.547Z,1.40
2019-03-17T21:22:47.219Z,1.63
2019-03-17T21:25:14.965Z,1.50
2019-03-17T21:27:42.717Z,1.17
2019-03-17T21:30:23.896Z,2.00
2019-03-17T21:32:51.548Z,1.40
2019-03-17T21:35:19.229Z,1.37
2019-03-17T21:37:46.995Z,1.20
2019-03-17T21:40:14.966Z,1.10
2019-03-17T21:42:42.836Z,1.20
2019-03-17T21:45:11.229Z,1.47
2019-03-17T21:47:38.983Z,1.50
2019-03-17T21:50:10.843Z,1.37
2019-03-17T21:52:38.823Z,1.10
2019-03-17T21:55:07.509Z,1.17
2019-03-17T21:57:35.375Z,1.40
2019-03-17T22:00:03.346Z,1.33
2019-03-17T22:02:30.988Z,1.47
2019-03-17T22:04:58.651Z,1.20
2019-03-17T22:07:26.439Z,1.30
2019-03-17T22:09:54.205Z,1.17
2019-03-17T22:12:21.973Z,1.00
2019-03-17T22:14:49.724Z,1.37
2019-03-17T22:17:17.509Z,1.40
2019-03-17T22:19:45.263Z,1.50
2019-03-17T22:22:13.135Z,2.83
2019-03-17T22:24:41.005Z,1.30
2019-03-17T22:27:08.764Z,1.30
2019-03-17T22:29:36.697Z,1.17
2019-03-17T22:32:06.038Z,1.65
2019-03-17T22:34:33.809Z,1.60
2019-03-17T22:37:01.520Z,1.33
2019-03-17T22:39:29.351Z,1.53
2019-03-17T22:41:57.109Z,1.30
2019-03-17T22:44:27.968Z,1.60
2019-03-17T22:46:54.436Z,1.37
2019-03-17T22:49:22.112Z,1.00
2019-03-17T22:51:50.000Z,1.33
2019-03-17T22:54:17.782Z,1.60
2019-03-17T22:56:45.545Z,1.23
2019-03-17T22:59:13.516Z,1.40
2019-03-17T23:01:41.486Z,1.20
2019-03-17T23:04:09.233Z,1.53
2019-03-17T23:06:36.981Z,1.77
2019-03-17T23:09:05.991Z,1.60
2019-03-17T23:11:33.782Z,1.93
2019-03-17T23:14:01.647Z,2.17
2019-03-17T23:16:29.612Z,1.33
2019-03-17T23:18:57.373Z,0.90
2019-03-17T23:21:25.031Z,1.10
2019-03-17T23:23:52.916Z,0.90
2019-03-17T23:26:20.779Z,1.00
2019-03-17T23:28:48.655Z,0.63
2019-03-17T23:31:16.508Z,1.30
2019-03-17T23:33:44.289Z,0.70
2019-03-17T23:36:11.945Z,0.50
2019-03-17T23:38:39.706Z,0.60
2019-03-17T23:41:07.469Z,0.60
2019-03-17T23:43:35.249Z,0.87
2019-03-17T23:46:03.004Z,0.80
2019-03-17T23:48:30.778Z,0.70
2019-03-17T23:50:58.423Z,0.73
2019-03-17T23:53:26.212Z,0.77
2019-03-17T23:55:54.082Z,0.93
2019-03-17T23:58:21.845Z,0.80
